createdAt,value
2023-03-11T00:00:52.669Z,3.00
2023-03-11T00:03:20.870Z,3.00
2023-03-11T00:05:47.590Z,3.00
2023-03-11T00:08:17.691Z,3.10
2023-03-11T00:10:46.110Z,3.10
2023-03-11T00:13:14.573Z,3.10
2023-03-11T00:15:42.535Z,3.00
2023-03-11T00:18:09.335Z,3.00
2023-03-11T00:20:37.984Z,3.00
2023-03-11T00:23:06.918Z,2.90
2023-03-11T00:25:35.122Z,2.90
2023-03-11T00:28:02.692Z,2.90
2023-03-11T00:30:29.376Z,2.90
2023-03-11T00:32:57.700Z,2.80
2023-03-11T00:35:30.415Z,2.90
2023-03-11T00:37:59.428Z,2.90
2023-03-11T00:40:28.641Z,2.90
2023-03-11T00:42:55.858Z,2.90
2023-03-11T00:45:22.718Z,2.90
2023-03-11T00:47:50.841Z,2.80
2023-03-11T00:50:21.372Z,2.70
2023-03-11T00:52:49.179Z,2.70
2023-03-11T00:55:19.671Z,2.70
2023-03-11T00:57:46.753Z,2.60
2023-03-11T01:00:20.208Z,2.60
2023-03-11T01:02:46.971Z,2.60
2023-03-11T01:05:15.263Z,2.60
2023-03-11T01:07:41.940Z,2.50
2023-03-11T01:10:09.405Z,2.60
2023-03-11T01:12:36.167Z,2.60
2023-03-11T01:15:04.164Z,2.60
2023-03-11T01:17:30.724Z,2.60
2023-03-11T01:19:57.301Z,2.70
2023-03-11T01:22:23.928Z,2.70
2023-03-11T01:24:50.536Z,2.60
2023-03-11T01:27:17.072Z,2.60
2023-03-11T01:29:43.557Z,2.50
2023-03-11T01:32:11.162Z,2.50
2023-03-11T01:34:37.763Z,2.40
2023-03-11T01:37:04.411Z,2.40
2023-03-11T01:39:30.965Z,2.40
2023-03-11T01:41:57.679Z,2.40
2023-03-11T01:44:24.868Z,2.40
2023-03-11T01:46:52.152Z,2.40
2023-03-11T01:49:22.414Z,2.40
2023-03-11T01:51:55.463Z,2.40
2023-03-11T01:54:26.479Z,2.50
2023-03-11T01:56:55.499Z,2.50
2023-03-11T01:59:31.790Z,2.50
2023-03-11T02:02:17.528Z,2.50
2023-03-11T02:04:44.968Z,2.40
2023-03-11T02:07:12.334Z,2.20
2023-03-11T02:09:38.976Z,2.10
2023-03-11T02:12:07.434Z,2.10
2023-03-11T02:14:35.720Z,2.00
2023-03-11T02:17:03.464Z,2.00
2023-03-11T02:19:56.402Z,2.00
2023-03-11T02:22:24.416Z,2.10
2023-03-11T02:25:04.698Z,2.10
2023-03-11T02:27:35.476Z,2.10
2023-03-11T02:30:05.107Z,2.10
2023-03-11T02:32:34.957Z,2.20
2023-03-11T02:35:01.889Z,2.10
2023-03-11T02:37:28.429Z,2.10
2023-03-11T02:40:35.195Z,2.10
2023-03-11T02:43:09.381Z,2.00
2023-03-11T02:45:43.815Z,1.90
2023-03-11T02:48:11.780Z,1.90
2023-03-11T02:50:39.866Z,1.90
2023-03-11T02:53:07.204Z,1.80
2023-03-11T02:55:33.912Z,1.80
2023-03-11T02:58:00.481Z,1.80
2023-03-11T03:00:27.791Z,1.80
2023-03-11T03:03:02.144Z,1.90
2023-03-11T03:05:29.017Z,1.90
2023-03-11T03:07:57.510Z,2.00
2023-03-11T03:10:26.997Z,2.00
2023-03-11T03:12:53.627Z,2.00
2023-03-11T03:15:20.436Z,2.10
2023-03-11T03:17:48.116Z,2.00
2023-03-11T03:20:14.988Z,2.00
2023-03-11T03:22:47.062Z,2.00
2023-03-11T03:25:16.874Z,2.00
2023-03-11T03:27:43.616Z,2.00
2023-03-11T03:30:11.252Z,2.00
2023-03-11T03:32:38.906Z,2.00
2023-03-11T03:35:09.877Z,2.00
2023-03-11T03:37:53.057Z,2.10
2023-03-11T03:40:21.421Z,2.10
2023-03-11T03:42:48.659Z,2.00
2023-03-11T03:45:15.566Z,2.00
2023-03-11T03:47:42.499Z,2.10
2023-03-11T03:50:11.296Z,2.10
2023-03-11T03:52:40.356Z,2.00
2023-03-11T03:55:07.569Z,1.90
2023-03-11T03:57:34.466Z,1.90
2023-03-11T04:00:01.256Z,1.80
2023-03-11T04:02:28.153Z,1.90
2023-03-11T04:04:55.803Z,1.90
2023-03-11T04:07:22.583Z,1.80
2023-03-11T04:09:49.245Z,1.80
2023-03-11T04:12:17.499Z,1.90
2023-03-11T04:14:44.931Z,1.80
2023-03-11T04:17:12.776Z,1.80
2023-03-11T04:19:40.275Z,1.80
2023-03-11T04:22:07.461Z,1.90
2023-03-11T04:24:33.994Z,1.80
2023-03-11T04:27:01.015Z,1.90
2023-03-11T04:29:28.150Z,1.90
2023-03-11T04:31:55.127Z,1.90
2023-03-11T04:34:21.726Z,1.90
2023-03-11T04:36:53.567Z,1.90
2023-03-11T04:39:22.543Z,1.90
2023-03-11T04:41:49.092Z,2.00
2023-03-11T04:44:19.866Z,1.90
2023-03-11T04:46:47.562Z,1.80
2023-03-11T04:49:15.158Z,1.80
2023-03-11T04:51:41.964Z,1.70
2023-03-11T04:54:09.381Z,1.70
2023-03-11T04:56:36.034Z,1.70
2023-03-11T04:59:03.929Z,1.60
2023-03-11T05:01:32.816Z,1.50
2023-03-11T05:04:02.589Z,1.60
2023-03-11T05:06:29.254Z,1.60
2023-03-11T05:08:56.159Z,1.60
2023-03-11T05:11:22.783Z,1.60
2023-03-11T05:13:49.331Z,1.60
2023-03-11T05:16:17.079Z,1.60
2023-03-11T05:18:43.815Z,1.60
2023-03-11T05:21:13.374Z,1.70
2023-03-11T05:23:39.993Z,1.70
2023-03-11T05:26:06.718Z,1.70
2023-03-11T05:28:34.188Z,1.60
2023-03-11T05:31:02.037Z,1.60
2023-03-11T05:33:35.297Z,1.60
2023-03-11T05:36:09.950Z,1.50
2023-03-11T05:38:39.643Z,1.40
2023-03-11T05:41:06.662Z,1.50
2023-03-11T05:43:34.029Z,1.50
2023-03-11T05:46:00.587Z,1.60
2023-03-11T05:48:27.497Z,1.60
2023-03-11T05:50:54.067Z,1.60
2023-03-11T05:53:21.886Z,1.60
2023-03-11T05:55:58.924Z,1.60
2023-03-11T05:58:27.382Z,1.60
2023-03-11T06:00:53.989Z,1.70
2023-03-11T06:03:20.787Z,1.70
2023-03-11T06:05:48.392Z,1.70
2023-03-11T06:08:15.274Z,1.60
2023-03-11T06:10:42.517Z,1.70
2023-03-11T06:13:09.852Z,1.70
2023-03-11T06:15:46.051Z,1.70
2023-03-11T06:18:12.812Z,1.70
2023-03-11T06:20:39.464Z,1.80
2023-03-11T06:23:05.966Z,1.70
2023-03-11T06:25:32.775Z,1.80
2023-03-11T06:28:01.346Z,1.80
2023-03-11T06:30:28.247Z,1.80
2023-03-11T06:33:02.526Z,1.80
2023-03-11T06:35:29.058Z,1.80
2023-03-11T06:37:55.605Z,1.90
2023-03-11T06:40:22.517Z,1.90
2023-03-11T06:42:48.994Z,1.80
2023-03-11T06:45:18.864Z,1.80
2023-03-11T06:47:47.052Z,1.70
2023-03-11T06:50:14.223Z,1.70
2023-03-11T06:52:40.828Z,1.70
2023-03-11T06:55:09.035Z,1.80
2023-03-11T06:57:36.507Z,1.90
2023-03-11T07:00:07.806Z,2.00
2023-03-11T07:02:35.475Z,2.10
2023-03-11T07:05:02.200Z,2.10
2023-03-11T07:07:28.940Z,2.10
2023-03-11T07:09:57.731Z,2.10
2023-03-11T07:12:25.396Z,2.20
2023-03-11T07:14:56.676Z,2.20
2023-03-11T07:17:23.646Z,2.20
2023-03-11T07:19:52.736Z,2.20
2023-03-11T07:22:19.312Z,2.30
2023-03-11T07:24:47.742Z,2.50
2023-03-11T07:27:15.200Z,2.60
2023-03-11T07:29:41.958Z,2.70
2023-03-11T07:32:09.463Z,2.70
2023-03-11T07:34:35.993Z,2.80
2023-03-11T07:37:03.183Z,2.80
2023-03-11T07:39:29.796Z,2.80
2023-03-11T07:41:56.326Z,2.90
2023-03-11T07:44:29.053Z,3.00
2023-03-11T07:46:55.542Z,3.10
2023-03-11T07:49:22.080Z,3.20
2023-03-11T07:51:48.561Z,3.20
2023-03-11T07:54:15.080Z,3.30
2023-03-11T07:56:41.991Z,3.40
2023-03-11T07:59:08.547Z,3.50
2023-03-11T08:01:40.644Z,3.60
2023-03-11T08:04:12.932Z,3.60
2023-03-11T08:06:42.932Z,3.70
2023-03-11T08:09:09.516Z,3.70
2023-03-11T08:11:36.713Z,3.80
2023-03-11T08:14:03.778Z,3.70
2023-03-11T08:16:30.998Z,3.80
2023-03-11T08:18:57.775Z,3.80
2023-03-11T08:21:26.684Z,3.90
2023-03-11T08:23:56.683Z,3.90
2023-03-11T08:26:23.682Z,3.90
2023-03-11T08:28:50.268Z,4.10
2023-03-11T08:31:21.091Z,4.10
2023-03-11T08:33:52.062Z,4.30
2023-03-11T08:36:19.846Z,4.30
2023-03-11T08:38:46.601Z,4.40
2023-03-11T08:41:13.414Z,4.50
2023-03-11T08:43:40.393Z,4.60
2023-03-11T08:46:08.029Z,4.60
2023-03-11T08:48:36.148Z,4.70
2023-03-11T08:51:03.079Z,4.80
2023-03-11T08:53:29.631Z,4.80
2023-03-11T08:55:56.122Z,4.90
2023-03-11T08:58:22.662Z,4.80
2023-03-11T09:00:49.213Z,4.90
2023-03-11T09:03:15.718Z,5.00
2023-03-11T09:05:42.285Z,5.10
2023-03-11T09:08:08.876Z,5.20
2023-03-11T09:10:35.386Z,5.20
2023-03-11T09:13:01.983Z,5.10
2023-03-11T09:15:28.699Z,5.30
2023-03-11T09:17:55.785Z,5.50
2023-03-11T09:20:22.607Z,5.80
2023-03-11T09:22:49.167Z,5.90
2023-03-11T09:25:15.768Z,6.00
2023-03-11T09:27:43.056Z,6.10
2023-03-11T09:30:11.088Z,6.10
2023-03-11T09:32:37.678Z,6.10
2023-03-11T09:35:04.987Z,6.20
2023-03-11T09:37:31.612Z,6.20
2023-03-11T09:39:58.140Z,6.00
2023-03-11T09:42:48.593Z,6.20
2023-03-11T09:45:24.041Z,6.30
2023-03-11T09:48:09.169Z,6.40
2023-03-11T09:50:53.918Z,6.70
2023-03-11T09:53:40.536Z,6.80
2023-03-11T09:56:09.839Z,6.70
2023-03-11T09:58:47.217Z,6.50
2023-03-11T10:01:35.053Z,6.40
2023-03-11T10:04:13.129Z,6.20
2023-03-11T10:06:41.128Z,6.20
2023-03-11T10:09:13.598Z,6.30
2023-03-11T10:12:19.406Z,6.40
2023-03-11T10:15:10.196Z,6.50
2023-03-11T10:18:02.742Z,6.50
2023-03-11T10:20:47.770Z,6.50
2023-03-11T10:23:26.145Z,6.60
2023-03-11T10:26:05.251Z,7.20
2023-03-11T10:28:46.945Z,7.20
2023-03-11T10:31:20.250Z,6.90
2023-03-11T10:33:56.479Z,7.20
2023-03-11T10:36:29.519Z,7.80
2023-03-11T10:38:56.257Z,8.20
2023-03-11T10:41:42.955Z,8.20
2023-03-11T10:44:23.841Z,8.00
2023-03-11T10:46:50.380Z,7.70
2023-03-11T10:49:18.612Z,7.50
2023-03-11T10:51:50.414Z,7.50
2023-03-11T10:54:28.142Z,7.50
2023-03-11T10:56:57.960Z,7.40
2023-03-11T10:59:28.177Z,7.30
2023-03-11T11:01:57.910Z,7.10
2023-03-11T11:04:39.715Z,6.90
2023-03-11T11:07:28.678Z,6.80
2023-03-11T11:10:13.627Z,7.00
2023-03-11T11:12:55.954Z,7.40
2023-03-11T11:15:27.709Z,7.60
2023-03-11T11:18:03.552Z,7.70
2023-03-11T11:20:32.348Z,7.70
2023-03-11T11:23:01.646Z,7.80
2023-03-11T11:25:40.618Z,7.90
2023-03-11T11:28:19.600Z,8.00
2023-03-11T11:31:04.843Z,8.10
2023-03-11T11:33:50.282Z,7.80
2023-03-11T11:36:18.152Z,7.60
2023-03-11T11:38:44.701Z,7.50
2023-03-11T11:41:17.587Z,7.70
2023-03-11T11:43:52.293Z,7.70
2023-03-11T11:46:23.099Z,7.70
2023-03-11T11:48:56.592Z,7.30
2023-03-11T11:51:41.022Z,7.30
2023-03-11T11:54:15.291Z,7.30
2023-03-11T11:56:42.060Z,7.30
2023-03-11T11:59:22.988Z,7.20
2023-03-11T12:02:21.084Z,7.10
2023-03-11T12:04:57.435Z,7.20
2023-03-11T12:07:38.545Z,7.30
2023-03-11T12:10:23.436Z,7.00
2023-03-11T12:12:59.349Z,6.80
2023-03-11T12:15:53.692Z,6.60
2023-03-11T12:18:42.563Z,6.80
2023-03-11T12:21:32.592Z,6.70
2023-03-11T12:24:28.337Z,7.00
2023-03-11T12:27:00.193Z,7.40
2023-03-11T12:29:34.200Z,7.60
2023-03-11T12:32:01.750Z,7.60
2023-03-11T12:34:34.081Z,7.60
2023-03-11T12:37:06.232Z,7.80
2023-03-11T12:39:36.606Z,8.10
2023-03-11T12:42:18.770Z,8.20
2023-03-11T12:44:49.372Z,8.20
2023-03-11T12:47:29.051Z,8.50
2023-03-11T12:50:19.932Z,8.80
2023-03-11T12:52:53.545Z,9.10
2023-03-11T12:55:32.352Z,9.40
2023-03-11T12:58:07.243Z,9.40
2023-03-11T13:01:16.125Z,9.60
2023-03-11T13:04:15.150Z,9.70
2023-03-11T13:07:08.334Z,9.60
2023-03-11T13:09:34.990Z,9.60
2023-03-11T13:12:01.636Z,9.60
2023-03-11T13:14:31.053Z,9.30
2023-03-11T13:17:23.818Z,8.80
2023-03-11T13:19:58.249Z,9.10
2023-03-11T13:22:43.422Z,9.40
2023-03-11T13:25:32.823Z,9.70
2023-03-11T13:28:30.292Z,9.70
2023-03-11T13:31:27.791Z,9.80
2023-03-11T13:33:55.964Z,9.70
2023-03-11T13:36:37.095Z,9.20
2023-03-11T13:39:41.329Z,9.00
2023-03-11T13:42:23.518Z,8.90
2023-03-11T13:44:50.996Z,9.00
2023-03-11T13:47:19.064Z,9.40
2023-03-11T13:50:09.960Z,9.60
2023-03-11T13:52:48.619Z,9.80
2023-03-11T13:55:26.739Z,9.90
2023-03-11T13:57:56.033Z,9.90
2023-03-11T14:00:25.272Z,10.20
2023-03-11T14:02:55.433Z,10.20
2023-03-11T14:05:42.619Z,10.00
2023-03-11T14:08:23.706Z,9.90
2023-03-11T14:11:00.058Z,9.70
2023-03-11T14:13:31.952Z,9.40
2023-03-11T14:16:03.333Z,9.40
2023-03-11T14:18:34.479Z,9.30
2023-03-11T14:21:02.579Z,9.20
2023-03-11T14:23:33.567Z,9.00
2023-03-11T14:26:02.420Z,9.00
2023-03-11T14:28:33.023Z,8.90
2023-03-11T14:31:01.045Z,8.90
2023-03-11T14:33:28.205Z,8.80
2023-03-11T14:36:07.104Z,8.70
2023-03-11T14:38:33.971Z,8.60
2023-03-11T14:41:04.327Z,8.40
2023-03-11T14:43:39.204Z,8.10
2023-03-11T14:46:07.612Z,8.00
2023-03-11T14:48:40.137Z,8.10
2023-03-11T14:51:23.671Z,8.20
2023-03-11T14:54:14.369Z,8.20
2023-03-11T14:56:44.028Z,8.40
2023-03-11T14:59:18.662Z,8.30
2023-03-11T15:01:47.151Z,8.20
2023-03-11T15:04:16.150Z,8.20
2023-03-11T15:06:44.929Z,8.00
2023-03-11T15:09:20.142Z,8.00
2023-03-11T15:11:48.584Z,8.20
2023-03-11T15:14:33.268Z,8.20
2023-03-11T15:17:34.884Z,8.20
2023-03-11T15:20:02.167Z,8.20
2023-03-11T15:22:41.236Z,8.10
2023-03-11T15:25:19.561Z,8.10
2023-03-11T15:27:46.515Z,8.20
2023-03-11T15:30:25.126Z,8.10
2023-03-11T15:32:52.546Z,8.10
2023-03-11T15:35:30.631Z,8.20
2023-03-11T15:38:25.336Z,8.20
2023-03-11T15:40:54.981Z,8.20
2023-03-11T15:43:31.194Z,8.30
2023-03-11T15:46:00.030Z,8.40
2023-03-11T15:48:29.024Z,8.50
2023-03-11T15:51:00.393Z,8.30
2023-03-11T15:53:28.010Z,8.40
2023-03-11T15:56:06.362Z,8.40
2023-03-11T15:58:33.841Z,8.30
2023-03-11T16:01:00.488Z,8.10
2023-03-11T16:03:27.144Z,7.90
2023-03-11T16:05:54.102Z,7.90
2023-03-11T16:08:20.673Z,7.90
2023-03-11T16:10:47.363Z,7.70
2023-03-11T16:13:15.569Z,7.50
2023-03-11T16:15:43.344Z,7.40
2023-03-11T16:18:10.600Z,7.20
2023-03-11T16:20:44.251Z,7.10
2023-03-11T16:23:20.042Z,6.90
2023-03-11T16:25:47.173Z,6.90
2023-03-11T16:28:15.804Z,6.80
2023-03-11T16:30:42.788Z,6.70
2023-03-11T16:33:09.481Z,6.70
2023-03-11T16:35:36.112Z,6.80
2023-03-11T16:38:02.720Z,6.80
2023-03-11T16:40:29.642Z,6.70
2023-03-11T16:43:01.783Z,6.70
2023-03-11T16:45:28.701Z,6.60
2023-03-11T16:47:55.264Z,6.60
2023-03-11T16:50:24.277Z,6.60
2023-03-11T16:52:52.334Z,6.60
2023-03-11T16:55:19.122Z,6.50
2023-03-11T16:57:45.850Z,6.40
2023-03-11T17:00:14.830Z,6.30
2023-03-11T17:02:41.602Z,6.20
2023-03-11T17:05:09.237Z,6.10
2023-03-11T17:07:39.184Z,6.00
2023-03-11T17:10:07.230Z,6.00
2023-03-11T17:12:33.994Z,5.90
2023-03-11T17:15:00.628Z,5.80
2023-03-11T17:17:27.366Z,5.70
2023-03-11T17:19:53.941Z,5.60
2023-03-11T17:22:20.512Z,5.60
2023-03-11T17:24:47.221Z,5.60
2023-03-11T17:27:13.858Z,5.50
2023-03-11T17:29:40.412Z,5.40
2023-03-11T17:32:07.585Z,5.40
2023-03-11T17:34:34.071Z,5.30
2023-03-11T17:37:00.654Z,5.30
2023-03-11T17:39:27.199Z,5.20
2023-03-11T17:41:53.757Z,5.20
2023-03-11T17:44:20.239Z,5.10
2023-03-11T17:46:46.932Z,5.10
2023-03-11T17:49:14.771Z,5.00
2023-03-11T17:51:41.337Z,5.00
2023-03-11T17:54:07.887Z,5.00
2023-03-11T17:56:34.523Z,5.00
2023-03-11T17:59:01.272Z,5.00
2023-03-11T18:01:29.244Z,4.90
2023-03-11T18:03:55.948Z,4.80
2023-03-11T18:06:23.343Z,4.70
2023-03-11T18:08:50.513Z,4.60
2023-03-11T18:11:20.309Z,4.60
2023-03-11T18:13:47.002Z,4.60
2023-03-11T18:16:19.555Z,4.60
2023-03-11T18:18:47.156Z,4.60
2023-03-11T18:21:16.399Z,4.60
2023-03-11T18:23:43.465Z,4.60
2023-03-11T18:26:11.917Z,4.50
2023-03-11T18:28:38.968Z,4.40
2023-03-11T18:31:08.415Z,4.30
2023-03-11T18:33:35.685Z,4.30
2023-03-11T18:36:14.571Z,4.30
2023-03-11T18:38:41.273Z,4.30
2023-03-11T18:41:07.714Z,4.20
2023-03-11T18:43:34.477Z,4.10
2023-03-11T18:46:01.635Z,4.00
2023-03-11T18:48:28.583Z,3.90
2023-03-11T18:50:55.584Z,3.90
2023-03-11T18:53:24.786Z,3.90
2023-03-11T18:55:52.863Z,3.80
2023-03-11T18:58:19.809Z,3.70
2023-03-11T19:00:46.364Z,3.60
2023-03-11T19:03:13.253Z,3.60
2023-03-11T19:05:39.743Z,3.60
2023-03-11T19:08:06.269Z,3.70
2023-03-11T19:10:32.719Z,3.70
2023-03-11T19:12:59.185Z,3.60
2023-03-11T19:15:25.680Z,3.50
2023-03-11T19:18:05.921Z,3.50
2023-03-11T19:20:32.579Z,3.40
2023-03-11T19:22:59.242Z,3.40
2023-03-11T19:25:27.758Z,3.40
2023-03-11T19:27:55.089Z,3.30
2023-03-11T19:30:22.021Z,3.30
2023-03-11T19:32:52.644Z,3.40
2023-03-11T19:35:23.557Z,3.30
2023-03-11T19:37:57.102Z,3.30
2023-03-11T19:40:23.763Z,3.20
2023-03-11T19:42:50.321Z,3.30
2023-03-11T19:45:16.896Z,3.20
2023-03-11T19:47:46.416Z,3.30
2023-03-11T19:50:12.970Z,3.30
2023-03-11T19:52:39.585Z,3.30
2023-03-11T19:55:06.720Z,3.40
2023-03-11T19:57:33.268Z,3.20
2023-03-11T19:59:59.840Z,3.10
2023-03-11T20:02:26.445Z,3.00
2023-03-11T20:04:53.101Z,3.00
2023-03-11T20:07:19.779Z,3.00
2023-03-11T20:09:46.475Z,3.00
2023-03-11T20:12:13.092Z,3.00
2023-03-11T20:14:40.941Z,3.10
2023-03-11T20:17:07.947Z,3.10
2023-03-11T20:19:35.513Z,3.10
2023-03-11T20:22:02.250Z,3.10
2023-03-11T20:24:28.753Z,3.10
2023-03-11T20:26:55.306Z,3.20
2023-03-11T20:29:21.851Z,3.20
2023-03-11T20:31:48.524Z,3.20
2023-03-11T20:34:14.992Z,3.10
2023-03-11T20:36:41.480Z,3.00
2023-03-11T20:39:10.479Z,3.00
2023-03-11T20:41:39.413Z,2.90
2023-03-11T20:44:08.101Z,2.80
2023-03-11T20:46:34.866Z,2.70
2023-03-11T20:49:01.975Z,2.70
2023-03-11T20:51:28.490Z,2.70
2023-03-11T20:53:55.198Z,2.60
2023-03-11T20:56:24.919Z,2.60
2023-03-11T20:58:52.501Z,2.60
2023-03-11T21:01:25.307Z,2.50
2023-03-11T21:03:57.622Z,2.50
2023-03-11T21:06:26.862Z,2.40
2023-03-11T21:08:55.474Z,2.40
2023-03-11T21:11:22.824Z,2.30
2023-03-11T21:13:49.531Z,2.20
2023-03-11T21:16:16.433Z,2.10
2023-03-11T21:18:44.529Z,2.10
2023-03-11T21:21:12.863Z,2.00
2023-03-11T21:23:40.884Z,1.90
2023-03-11T21:26:08.231Z,1.90
2023-03-11T21:28:35.331Z,1.90
2023-03-11T21:31:10.664Z,1.90
2023-03-11T21:33:38.638Z,1.90
2023-03-11T21:36:06.201Z,1.80
2023-03-11T21:38:33.695Z,1.90
2023-03-11T21:41:15.848Z,2.00
2023-03-11T21:43:43.130Z,2.00
2023-03-11T21:46:12.591Z,2.10
2023-03-11T21:48:39.277Z,2.10
2023-03-11T21:51:06.612Z,1.90
2023-03-11T21:53:33.426Z,1.80
2023-03-11T21:56:00.055Z,1.60
2023-03-11T21:58:27.377Z,1.50
2023-03-11T22:00:57.146Z,1.50
2023-03-11T22:03:23.666Z,1.50
2023-03-11T22:05:59.186Z,1.50
2023-03-11T22:08:29.484Z,1.30
2023-03-11T22:10:56.094Z,1.30
2023-03-11T22:13:23.259Z,1.40
2023-03-11T22:15:50.091Z,1.50
2023-03-11T22:18:16.784Z,1.50
2023-03-11T22:20:43.682Z,1.50
2023-03-11T22:23:10.533Z,1.50
2023-03-11T22:25:37.175Z,1.60
2023-03-11T22:28:04.141Z,1.70
2023-03-11T22:30:30.754Z,1.60
2023-03-11T22:32:57.271Z,1.60
2023-03-11T22:35:23.775Z,1.60
2023-03-11T22:37:50.278Z,1.40
2023-03-11T22:40:16.793Z,1.40
2023-03-11T22:42:43.265Z,1.40
2023-03-11T22:45:10.161Z,1.20
2023-03-11T22:47:36.723Z,1.30
2023-03-11T22:50:04.038Z,1.30
2023-03-11T22:52:30.627Z,1.30
2023-03-11T22:54:57.222Z,1.20
2023-03-11T22:57:23.765Z,1.10
2023-03-11T22:59:50.333Z,1.10
2023-03-11T23:02:16.788Z,1.00
2023-03-11T23:04:46.505Z,1.10
2023-03-11T23:07:13.203Z,1.10
2023-03-11T23:09:39.776Z,1.20
2023-03-11T23:12:06.926Z,1.30
2023-03-11T23:14:44.603Z,1.30
2023-03-11T23:17:12.087Z,1.20
2023-03-11T23:19:38.769Z,1.10
2023-03-11T23:22:05.415Z,1.10
2023-03-11T23:24:31.903Z,1.10
2023-03-11T23:26:58.373Z,1.10
2023-03-11T23:29:25.057Z,1.30
2023-03-11T23:31:51.507Z,1.30
2023-03-11T23:34:17.979Z,1.30
2023-03-11T23:36:44.469Z,1.20
2023-03-11T23:39:11.086Z,1.10
2023-03-11T23:41:37.970Z,1.10
2023-03-11T23:44:05.064Z,1.20
2023-03-11T23:46:32.001Z,1.20
2023-03-11T23:48:58.861Z,1.20
2023-03-11T23:51:25.385Z,1.30
2023-03-11T23:53:51.994Z,1.30
2023-03-11T23:56:18.647Z,1.30
2023-03-11T23:58:45.792Z,1.20
